Time;durP1;ratioP1;P1;durP2;ratioP2;P2;SDS_P1;SDS_P2;PMS_P1;PMS_P2;Temp;Humidity;BMP_temperature;BMP_pressure;BME280_temperature;BME280_humidity;BME280_pressure;Samples;Min_cycle;Max_cycle;Signal;HPM_P1;HPM_P2
2022/09/18 00:39:07;;;;;;;3.03;2.00;;;;;;;;;;6272584;22;20451;-90
2022/09/18 00:41:38;;;;;;;5.93;2.60;;;;;;;;;;6261109;22;20396;-91
2022/09/18 00:44:23;;;;;;;2.50;1.40;;;;;;;;;;6264855;22;20464;-90
2022/09/18 00:46:49;;;;;;;5.97;2.27;;;;;;;;;;6258193;22;20480;-90
2022/09/18 00:49:20;;;;;;;2.73;2.00;;;;;;;;;;6284268;22;20377;-90
2022/09/18 00:51:51;;;;;;;3.03;2.50;;;;;;;;;;6286401;22;20408;-90
2022/09/18 00:54:22;;;;;;;3.20;2.00;;;;;;;;;;6260074;22;20684;-90
2022/09/18 00:56:50;;;;;;;4.43;2.13;;;;;;;;;;6260057;22;20432;-89
2022/09/18 00:59:19;;;;;;;5.20;2.03;;;;;;;;;;6258786;22;20432;-91
2022/09/18 01:01:45;;;;;;;1.97;1.87;;;;;;;;;;6256149;22;20501;-91
2022/09/18 01:04:11;;;;;;;3.33;2.43;;;;;;;;;;6268988;22;20391;-91
2022/09/18 01:06:50;;;;;;;3.67;3.27;;;;;;;;;;6259679;22;20391;-91
2022/09/18 01:09:18;;;;;;;4.67;2.40;;;;;;;;;;6264553;22;20869;-93
2022/09/18 01:11:53;;;;;;;1.83;1.73;;;;;;;;;;6258880;22;20417;-92
2022/09/18 01:14:35;;;;;;;3.33;1.80;;;;;;;;;;6258280;22;20384;-92
2022/09/18 01:17:07;;;;;;;5.87;1.90;;;;;;;;;;6256827;22;20389;-92
2022/09/18 01:19:42;;;;;;;6.23;1.80;;;;;;;;;;6292518;22;20404;-91
2022/09/18 01:22:13;;;;;;;5.53;1.90;;;;;;;;;;6289255;22;20371;-91
2022/09/18 01:25:01;;;;;;;2.53;2.20;;;;;;;;;;6271009;22;20416;-91
2022/09/18 01:27:40;;;;;;;9.30;2.20;;;;;;;;;;6290799;22;20404;-90
2022/09/18 01:36:48;;;;;;;2.73;1.87;;;;;;;;;;6287723;22;20351;-91
2022/09/18 01:39:27;;;;;;;8.77;2.03;;;;;;;;;;6288509;22;20439;-91
2022/09/18 01:41:54;;;;;;;7.93;2.20;;;;;;;;;;6281826;22;20368;-91
2022/09/18 01:44:23;;;;;;;4.67;2.30;;;;;;;;;;6255986;22;20379;-92
2022/09/18 01:46:50;;;;;;;2.70;2.00;;;;;;;;;;6258673;22;20384;-92
2022/09/18 01:49:19;;;;;;;4.83;2.33;;;;;;;;;;6281593;22;20828;-91
2022/09/18 01:51:51;;;;;;;7.00;1.97;;;;;;;;;;6250755;22;20559;-91
2022/09/18 01:54:20;;;;;;;3.77;1.83;;;;;;;;;;6262942;22;20373;-91
2022/09/18 01:56:50;;;;;;;3.37;2.07;;;;;;;;;;6253256;22;20479;-91
2022/09/18 01:59:19;;;;;;;3.20;1.43;;;;;;;;;;6255592;22;20431;-92
2022/09/18 02:01:46;;;;;;;6.27;2.30;;;;;;;;;;6253880;22;20397;-91
2022/09/18 02:04:18;;;;;;;5.47;2.10;;;;;;;;;;6254418;22;20406;-90
2022/09/18 02:07:19;;;;;;;7.93;2.33;;;;;;;;;;6254896;22;20388;-91
2022/09/18 02:09:57;;;;;;;8.27;1.67;;;;;;;;;;6223346;22;20419;-90
2022/09/18 02:15:29;;;;;;;3.70;1.80;;;;;;;;;;6296703;22;20427;-91
2022/09/18 02:17:58;;;;;;;4.60;2.40;;;;;;;;;;6263695;22;20460;-91
2022/09/18 02:20:26;;;;;;;3.13;1.87;;;;;;;;;;6264706;22;20435;-90
2022/09/18 02:22:54;;;;;;;2.63;1.60;;;;;;;;;;6261487;22;20498;-90
2022/09/18 02:25:24;;;;;;;3.80;1.83;;;;;;;;;;6269048;22;20380;-91
2022/09/18 02:27:53;;;;;;;5.20;2.47;;;;;;;;;;6274021;22;20396;-91
2022/09/18 02:30:19;;;;;;;3.80;1.90;;;;;;;;;;6267224;22;20415;-90
2022/09/18 02:32:45;;;;;;;2.40;1.70;;;;;;;;;;6259545;22;20495;-91
2022/09/18 02:35:14;;;;;;;6.97;2.20;;;;;;;;;;6264533;22;20393;-91
2022/09/18 02:37:59;;;;;;;2.80;2.60;;;;;;;;;;6262578;22;20399;-90
2022/09/18 02:40:31;;;;;;;1.77;1.67;;;;;;;;;;6262278;22;20743;-90
2022/09/18 02:43:24;;;;;;;7.40;3.00;;;;;;;;;;6264593;22;20392;-89
2022/09/18 02:45:50;;;;;;;4.60;1.70;;;;;;;;;;6263014;22;20364;-90
2022/09/18 02:48:29;;;;;;;8.20;2.20;;;;;;;;;;6267871;22;20418;-90
2022/09/18 02:50:55;;;;;;;3.97;2.23;;;;;;;;;;6266540;22;20400;-89
2022/09/18 02:53:33;;;;;;;7.43;2.50;;;;;;;;;;6268251;22;20389;-90
2022/09/18 02:56:05;;;;;;;5.17;2.17;;;;;;;;;;6270285;22;20383;-90
2022/09/18 02:58:34;;;;;;;3.20;2.97;;;;;;;;;;6270288;22;20484;-90
2022/09/18 03:01:02;;;;;;;4.90;2.30;;;;;;;;;;6267966;22;20425;-90
2022/09/18 03:03:31;;;;;;;13.13;2.53;;;;;;;;;;6296936;22;20436;-89
2022/09/18 03:05:57;;;;;;;8.20;3.40;;;;;;;;;;6272207;22;20393;-89
2022/09/18 03:08:24;;;;;;;3.97;3.10;;;;;;;;;;6270973;22;20389;-89
2022/09/18 03:10:50;;;;;;;3.27;3.03;;;;;;;;;;6273538;22;20396;-89
2022/09/18 03:13:36;;;;;;;5.47;3.90;;;;;;;;;;6297625;22;20382;-90
2022/09/18 03:16:02;;;;;;;3.50;3.20;;;;;;;;;;6271682;22;20380;-89
2022/09/18 03:18:28;;;;;;;5.93;3.73;;;;;;;;;;6294871;22;20380;-88
2022/09/18 03:20:54;;;;;;;8.37;4.37;;;;;;;;;;6271252;22;20407;-89
2022/09/18 03:25:57;;;;;;;5.80;4.23;;;;;;;;;;6292469;22;20432;-89
2022/09/18 03:28:23;;;;;;;6.10;3.80;;;;;;;;;;6271311;22;20423;-88
2022/09/18 03:30:49;;;;;;;9.20;3.30;;;;;;;;;;6271260;22;20396;-90
2022/09/18 03:33:16;;;;;;;3.20;2.97;;;;;;;;;;6271943;22;20397;-90
2022/09/18 03:35:43;;;;;;;2.77;2.70;;;;;;;;;;6271505;22;20480;-90
2022/09/18 03:38:09;;;;;;;5.43;3.10;;;;;;;;;;6268269;22;20460;-89
2022/09/18 03:40:36;;;;;;;5.47;3.10;;;;;;;;;;6269503;22;20396;-90
2022/09/18 03:43:02;;;;;;;5.93;3.00;;;;;;;;;;6271057;22;20389;-89
2022/09/18 03:45:28;;;;;;;4.13;3.27;;;;;;;;;;6266839;22;20908;-90
2022/09/18 03:47:57;;;;;;;2.80;2.60;;;;;;;;;;6264496;22;20383;-90
2022/09/18 03:56:31;;;;;;;3.40;3.00;;;;;;;;;;6291438;22;20363;-90
2022/09/18 03:58:57;;;;;;;7.40;3.07;;;;;;;;;;6285622;22;20408;-90
2022/09/18 04:01:25;;;;;;;4.57;4.00;;;;;;;;;;6252756;22;20720;-91
2022/09/18 04:03:51;;;;;;;3.60;3.00;;;;;;;;;;6258712;22;20375;-88
2022/09/18 04:06:17;;;;;;;4.67;3.20;;;;;;;;;;6264601;22;20385;-90
2022/09/18 04:08:43;;;;;;;4.83;3.50;;;;;;;;;;6261265;22;20724;-91
2022/09/18 04:11:09;;;;;;;6.00;3.63;;;;;;;;;;6256649;22;20396;-89
2022/09/18 04:13:35;;;;;;;9.63;3.27;;;;;;;;;;6261885;22;20376;-91
2022/09/18 04:16:01;;;;;;;3.67;2.93;;;;;;;;;;6229946;23;20488;-90
2022/09/18 04:18:27;;;;;;;4.30;2.80;;;;;;;;;;6232322;23;20488;-90
2022/09/18 04:20:53;;;;;;;5.00;3.07;;;;;;;;;;6258570;22;20400;-90
2022/09/18 04:23:20;;;;;;;4.33;2.60;;;;;;;;;;6228987;23;20420;-90
2022/09/18 04:25:46;;;;;;;3.70;2.47;;;;;;;;;;6261981;22;20424;-90
2022/09/18 04:28:12;;;;;;;4.63;2.80;;;;;;;;;;6238289;23;20742;-90
2022/09/18 04:30:38;;;;;;;3.50;2.80;;;;;;;;;;6236143;23;20400;-89
2022/09/18 04:33:06;;;;;;;4.10;2.43;;;;;;;;;;6260480;22;20381;-90
2022/09/18 04:35:32;;;;;;;2.67;2.20;;;;;;;;;;6255119;22;20374;-91
2022/09/18 04:37:58;;;;;;;3.50;2.80;;;;;;;;;;6227572;23;20413;-90
2022/09/18 04:40:24;;;;;;;3.73;2.30;;;;;;;;;;6225641;23;20837;-91
2022/09/18 04:42:50;;;;;;;2.30;2.30;;;;;;;;;;6221415;23;20425;-91
2022/09/18 04:45:16;;;;;;;4.00;2.40;;;;;;;;;;6228468;23;20388;-91
2022/09/18 04:47:44;;;;;;;3.00;2.80;;;;;;;;;;6230164;23;20389;-90
2022/09/18 04:50:10;;;;;;;3.33;2.10;;;;;;;;;;6226799;23;20401;-90
2022/09/18 04:52:36;;;;;;;3.73;3.40;;;;;;;;;;6223688;23;20874;-91
2022/09/18 04:55:03;;;;;;;2.90;2.70;;;;;;;;;;6226841;23;20451;-90
2022/09/18 04:57:29;;;;;;;3.30;1.93;;;;;;;;;;6225760;23;20401;-90
2022/09/18 04:59:56;;;;;;;3.70;2.13;;;;;;;;;;6225303;22;20417;-89
2022/09/18 05:02:23;;;;;;;4.17;2.07;;;;;;;;;;6221213;23;20385;-90
2022/09/18 05:04:49;;;;;;;2.93;2.53;;;;;;;;;;6220035;23;20428;-91
2022/09/18 05:07:15;;;;;;;5.20;3.27;;;;;;;;;;6230382;22;20390;-90
2022/09/18 05:09:41;;;;;;;6.30;4.17;;;;;;;;;;6223774;23;20369;-90
2022/09/18 05:12:08;;;;;;;9.50;4.03;;;;;;;;;;6223225;23;20423;-91
2022/09/18 05:14:35;;;;;;;5.33;4.80;;;;;;;;;;6226108;23;20416;-91
2022/09/18 05:17:01;;;;;;;8.40;6.03;;;;;;;;;;6251388;22;20370;-91
2022/09/18 05:19:27;;;;;;;5.07;4.60;;;;;;;;;;6228709;23;20421;-90
2022/09/18 05:21:53;;;;;;;8.10;7.33;;;;;;;;;;6234497;23;20402;-89
2022/09/18 05:24:19;;;;;;;15.13;7.63;;;;;;;;;;6225926;23;20400;-90
2022/09/18 05:26:46;;;;;;;7.40;5.90;;;;;;;;;;6224316;23;20425;-91
2022/09/18 05:29:12;;;;;;;9.90;6.33;;;;;;;;;;6223983;23;20389;-90
2022/09/18 05:31:38;;;;;;;7.80;7.13;;;;;;;;;;6228139;23;20432;-91
2022/09/18 05:34:04;;;;;;;11.67;7.77;;;;;;;;;;6233551;23;20385;-91
2022/09/18 05:36:30;;;;;;;8.43;7.20;;;;;;;;;;6235440;23;20404;-90
2022/09/18 05:38:56;;;;;;;10.63;7.40;;;;;;;;;;6225151;23;20439;-91
2022/09/18 05:41:22;;;;;;;9.17;7.67;;;;;;;;;;6225113;23;20484;-91
2022/09/18 05:43:48;;;;;;;13.83;8.67;;;;;;;;;;6223625;23;20455;-90
2022/09/18 05:46:14;;;;;;;9.87;7.77;;;;;;;;;;6228529;23;20452;-91
2022/09/18 05:48:41;;;;;;;8.33;7.63;;;;;;;;;;6228478;23;20875;-91
2022/09/18 05:51:07;;;;;;;10.40;7.63;;;;;;;;;;6251180;22;20365;-90
2022/09/18 05:53:34;;;;;;;8.70;7.60;;;;;;;;;;6221846;23;20456;-91
2022/09/18 05:56:00;;;;;;;9.67;8.77;;;;;;;;;;6220917;23;20413;-91
2022/09/18 05:58:26;;;;;;;13.47;9.20;;;;;;;;;;6220082;23;20389;-90
2022/09/18 06:00:52;;;;;;;8.47;7.77;;;;;;;;;;6216736;23;20390;-91
2022/09/18 06:03:18;;;;;;;22.33;9.07;;;;;;;;;;6247297;22;20377;-90
2022/09/18 06:05:50;;;;;;;9.03;8.03;;;;;;;;;;6222634;23;20486;-91
2022/09/18 06:08:16;;;;;;;15.37;8.90;;;;;;;;;;6219819;23;20381;-91
2022/09/18 06:10:42;;;;;;;9.37;7.40;;;;;;;;;;6226835;23;20456;-93
2022/09/18 06:13:15;;;;;;;12.60;7.17;;;;;;;;;;6235218;22;20405;-94
2022/09/18 06:15:46;;;;;;;7.60;7.03;;;;;;;;;;6236411;23;20408;-94
2022/09/18 06:18:13;;;;;;;9.20;6.83;;;;;;;;;;6233969;23;20737;-93
2022/09/18 06:20:39;;;;;;;8.67;7.97;;;;;;;;;;6239757;23;20404;-94
2022/09/18 06:23:05;;;;;;;8.27;7.50;;;;;;;;;;6241013;23;20389;-89
2022/09/18 06:25:31;;;;;;;11.80;10.60;;;;;;;;;;6237758;22;21013;-94
2022/09/18 06:27:59;;;;;;;10.83;9.43;;;;;;;;;;6265266;22;20382;-89
2022/09/18 06:30:29;;;;;;;10.70;9.67;;;;;;;;;;6263482;22;20405;-93
2022/09/18 06:32:57;;;;;;;14.27;9.10;;;;;;;;;;6260095;22;20414;-93
2022/09/18 06:35:23;;;;;;;12.77;11.57;;;;;;;;;;6260748;23;20695;-92
2022/09/18 06:37:51;;;;;;;12.67;7.70;;;;;;;;;;6291276;22;20781;-94
2022/09/18 06:40:17;;;;;;;6.73;6.27;;;;;;;;;;6270216;22;20441;-93
2022/09/18 06:42:43;;;;;;;7.07;6.40;;;;;;;;;;6259277;23;20419;-94
2022/09/18 06:45:09;;;;;;;6.33;5.83;;;;;;;;;;6260619;23;20362;-94
2022/09/18 06:47:38;;;;;;;7.40;6.57;;;;;;;;;;6262999;23;20420;-94
2022/09/18 06:50:05;;;;;;;7.63;7.03;;;;;;;;;;6260392;23;20463;-93
2022/09/18 06:52:35;;;;;;;7.13;6.37;;;;;;;;;;6258911;23;20386;-94
2022/09/18 06:55:01;;;;;;;7.70;6.20;;;;;;;;;;6265976;22;20393;-94
2022/09/18 06:57:27;;;;;;;7.77;6.37;;;;;;;;;;6255500;23;20904;-91
2022/09/18 06:59:53;;;;;;;7.77;6.80;;;;;;;;;;6222783;22;20443;-91
2022/09/18 07:02:21;;;;;;;7.37;6.63;;;;;;;;;;6230564;23;20385;-94
2022/09/18 07:04:48;;;;;;;8.60;6.63;;;;;;;;;;6232405;23;20410;-90
2022/09/18 07:07:14;;;;;;;8.27;6.77;;;;;;;;;;6236179;23;20399;-93
2022/09/18 07:12:47;;;;;;;6.83;6.30;;;;;;;;;;6230654;23;20400;-93
2022/09/18 07:23:01;;;;;;;4.83;4.60;;;;;;;;;;6258237;22;20456;-94
2022/09/18 07:25:30;;;;;;;5.30;4.90;;;;;;;;;;6233651;23;20417;-94
2022/09/18 07:28:07;;;;;;;4.27;3.97;;;;;;;;;;6230300;23;20452;-92
2022/09/18 07:30:47;;;;;;;4.20;3.67;;;;;;;;;;6232593;23;20830;-91
2022/09/18 07:33:24;;;;;;;5.20;4.77;;;;;;;;;;6235590;23;20408;-91
2022/09/18 07:36:06;;;;;;;5.50;4.20;;;;;;;;;;6241013;23;20376;-92
2022/09/18 07:38:35;;;;;;;4.93;4.30;;;;;;;;;;6264442;23;20381;-92
2022/09/18 07:41:22;;;;;;;5.40;4.90;;;;;;;;;;6238641;23;20909;-92
2022/09/18 07:44:01;;;;;;;4.33;3.70;;;;;;;;;;6240403;23;20385;-92
2022/09/18 07:46:46;;;;;;;4.20;3.90;;;;;;;;;;6238726;23;20381;-92
2022/09/18 07:52:36;;;;;;;2.43;2.33;;;;;;;;;;6270313;22;20401;-93
2022/09/18 07:55:33;;;;;;;2.80;2.50;;;;;;;;;;6238147;22;20455;-92
2022/09/18 08:01:23;;;;;;;4.17;3.20;;;;;;;;;;6113721;23;20984;-90
2022/09/18 08:04:12;;;;;;;3.70;3.60;;;;;;;;;;6268545;22;20365;-92
2022/09/18 08:06:41;;;;;;;4.80;4.50;;;;;;;;;;6243185;23;20405;-90
2022/09/18 08:09:07;;;;;;;4.87;4.47;;;;;;;;;;6241753;23;20466;-93
2022/09/18 08:11:45;;;;;;;4.90;4.33;;;;;;;;;;6243321;23;20401;-94
2022/09/18 08:17:06;;;;;;;4.20;3.90;;;;;;;;;;6252469;22;20431;-93
2022/09/18 08:19:32;;;;;;;3.90;3.70;;;;;;;;;;6267369;22;20421;-90
2022/09/18 08:22:17;;;;;;;5.00;4.60;;;;;;;;;;6271162;22;20430;-89
2022/09/18 08:25:20;;;;;;;5.37;4.90;;;;;;;;;;6242707;22;20512;-91
2022/09/18 09:21:37;;;;;;;;;;;;;;;;;;;;;
2022/09/18 09:24:42;;;;;;;4.80;4.30;;;;;;;;;;6266133;22;20401;-95
2022/09/18 09:27:15;;;;;;;4.53;3.80;;;;;;;;;;6203925;23;20407;-88
2022/09/18 09:33:08;;;;;;;5.57;3.53;;;;;;;;;;6267198;22;20474;-93
2022/09/18 09:38:39;;;;;;;3.77;2.40;;;;;;;;;;6269732;22;20443;-93
2022/09/18 09:41:24;;;;;;;3.70;3.33;;;;;;;;;;6240487;22;20468;-93
2022/09/18 09:44:15;;;;;;;3.27;3.07;;;;;;;;;;6267573;22;20453;-93
2022/09/18 09:49:28;;;;;;;4.87;3.20;;;;;;;;;;6240506;22;20456;-90
2022/09/18 09:52:23;;;;;;;3.50;3.40;;;;;;;;;;6263835;23;20484;-90
2022/09/18 09:55:10;;;;;;;4.80;3.20;;;;;;;;;;6263480;23;20373;-95
2022/09/18 09:58:05;;;;;;;6.33;3.07;;;;;;;;;;6262759;23;20401;-91
2022/09/18 10:07:00;;;;;;;4.57;4.47;;;;;;;;;;6246433;22;20413;-94
2022/09/18 10:09:35;;;;;;;6.50;4.60;;;;;;;;;;6248725;23;21081;-89
2022/09/18 10:12:21;;;;;;;5.93;5.17;;;;;;;;;;6247534;22;20379;-88
2022/09/18 10:15:02;;;;;;;6.43;6.03;;;;;;;;;;6244036;23;20405;-91
2022/09/18 10:17:48;;;;;;;5.07;4.63;;;;;;;;;;6250692;22;20484;-89
2022/09/18 10:20:20;;;;;;;9.10;6.93;;;;;;;;;;6223554;22;20458;-90
2022/09/18 10:23:02;;;;;;;;;;;;;;;;;;;;;
2022/09/18 10:25:41;;;;;;;4.80;4.50;;;;;;;;;;6215630;23;20414;-88
2022/09/18 10:28:24;;;;;;;5.00;4.53;;;;;;;;;;6222167;23;20386;-88
2022/09/18 10:31:16;;;;;;;5.90;5.50;;;;;;;;;;6219221;23;20386;-88
2022/09/18 10:33:53;;;;;;;5.00;4.90;;;;;;;;;;6226627;23;20386;-89
2022/09/18 10:36:22;;;;;;;3.50;2.90;;;;;;;;;;6221722;23;20390;-91
2022/09/18 10:41:47;;;;;;;3.37;2.40;;;;;;;;;;6161345;23;20710;-91
2022/09/18 10:45:02;;;;;;;;;;;;;;;;;;;;;
2022/09/18 10:47:38;;;;;;;1.07;1.07;;;;;;;;;;6144116;23;20448;-89
2022/09/18 10:50:10;;;;;;;1.60;1.50;;;;;;;;;;6147902;23;20423;-88
2022/09/18 10:52:40;;;;;;;2.37;2.27;;;;;;;;;;6180101;23;20465;-90
2022/09/18 10:55:06;;;;;;;1.53;1.53;;;;;;;;;;6208462;23;20375;-89
2022/09/18 10:57:36;;;;;;;1.50;1.20;;;;;;;;;;6211235;23;20858;-89
2022/09/18 11:00:07;;;;;;;2.10;1.60;;;;;;;;;;6212821;23;20410;-89
2022/09/18 11:02:45;;;;;;;1.40;1.30;;;;;;;;;;6204091;23;20440;-90
2022/09/18 11:05:16;;;;;;;1.93;1.30;;;;;;;;;;6221210;23;20464;-90
2022/09/18 11:08:04;;;;;;;2.20;1.37;;;;;;;;;;6221162;23;20866;-89
2022/09/18 11:10:40;;;;;;;2.07;2.07;;;;;;;;;;6222520;23;20663;-93
2022/09/18 11:13:06;;;;;;;2.80;2.70;;;;;;;;;;6235025;23;20458;-94
2022/09/18 11:15:39;;;;;;;2.50;2.40;;;;;;;;;;6211252;23;20407;-92
2022/09/18 11:18:09;;;;;;;3.37;3.27;;;;;;;;;;6197138;23;20895;-94
2022/09/18 11:20:41;;;;;;;2.93;2.83;;;;;;;;;;6218959;23;20452;-92
2022/09/18 11:23:27;;;;;;;3.07;2.97;;;;;;;;;;6227559;23;20391;-93
2022/09/18 11:26:13;;;;;;;2.80;2.30;;;;;;;;;;6226833;23;20404;-94
2022/09/18 11:28:39;;;;;;;2.70;2.53;;;;;;;;;;6229373;23;20383;-91
2022/09/18 11:31:33;;;;;;;3.20;3.10;;;;;;;;;;6230202;23;20422;-93
2022/09/18 11:34:14;;;;;;;3.03;2.83;;;;;;;;;;6228377;23;20375;-93
2022/09/18 11:36:40;;;;;;;2.30;2.30;;;;;;;;;;6225485;23;20408;-91
2022/09/18 11:39:19;;;;;;;3.73;2.50;;;;;;;;;;6222516;23;20486;-91
2022/09/18 11:42:17;;;;;;;3.00;2.90;;;;;;;;;;6226163;23;20406;-91
2022/09/18 11:44:47;;;;;;;3.67;3.47;;;;;;;;;;6200489;23;20460;-92
2022/09/18 11:47:19;;;;;;;5.10;4.80;;;;;;;;;;6224879;23;20402;-90
2022/09/18 11:49:54;;;;;;;3.60;3.50;;;;;;;;;;6221684;23;20397;-89
2022/09/18 11:52:58;;;;;;;3.47;3.37;;;;;;;;;;6223513;23;20366;-91
2022/09/18 11:55:30;;;;;;;3.80;3.50;;;;;;;;;;6133089;23;20381;-91
2022/09/18 11:58:23;;;;;;;2.60;2.50;;;;;;;;;;6135065;23;20460;-92
2022/09/18 12:01:22;;;;;;;2.03;2.03;;;;;;;;;;6190938;23;20514;-89
2022/09/18 12:04:11;;;;;;;2.10;2.10;;;;;;;;;;6079194;23;20461;-91
2022/09/18 12:07:04;;;;;;;2.73;2.73;;;;;;;;;;6134366;23;20383;-93
2022/09/18 12:09:51;;;;;;;2.17;1.97;;;;;;;;;;6224119;23;20379;-90
2022/09/18 12:12:35;;;;;;;3.17;2.87;;;;;;;;;;6196053;23;20390;-92
2022/09/18 12:15:04;;;;;;;2.00;1.90;;;;;;;;;;6213489;23;20415;-90
2022/09/18 12:17:41;;;;;;;1.50;1.50;;;;;;;;;;6196924;23;20390;-87
2022/09/18 12:20:20;;;;;;;3.23;3.20;;;;;;;;;;6182779;23;20495;-89
2022/09/18 12:22:53;;;;;;;2.87;2.40;;;;;;;;;;6186032;23;20398;-90
2022/09/18 12:25:21;;;;;;;2.37;2.20;;;;;;;;;;6182379;23;20438;-90
2022/09/18 12:27:56;;;;;;;1.87;1.77;;;;;;;;;;6184017;23;20390;-88
2022/09/18 12:33:36;;;;;;;1.60;1.50;;;;;;;;;;6216201;23;20365;-89
2022/09/18 12:36:08;;;;;;;2.00;1.20;;;;;;;;;;6219016;23;20389;-89
2022/09/18 12:38:53;;;;;;;1.63;1.53;;;;;;;;;;6213527;23;20462;-89
2022/09/18 12:41:31;;;;;;;3.50;1.73;;;;;;;;;;6219230;23;20397;-89
2022/09/18 12:44:07;;;;;;;2.10;2.10;;;;;;;;;;6214182;23;20909;-89
2022/09/18 12:46:39;;;;;;;2.00;1.90;;;;;;;;;;6216780;23;20511;-89
2022/09/18 12:49:05;;;;;;;2.10;2.00;;;;;;;;;;6213232;23;20386;-90
2022/09/18 12:51:51;;;;;;;3.63;1.60;;;;;;;;;;6216509;23;20374;-88
2022/09/18 12:54:17;;;;;;;1.53;1.43;;;;;;;;;;6169227;23;20464;-91
2022/09/18 12:56:55;;;;;;;1.57;1.50;;;;;;;;;;6219670;23;20391;-90
2022/09/18 12:59:40;;;;;;;1.70;1.60;;;;;;;;;;6218838;23;20437;-91
2022/09/18 13:02:09;;;;;;;1.83;1.70;;;;;;;;;;6229710;22;20470;-91
2022/09/18 13:04:55;;;;;;;1.77;1.60;;;;;;;;;;6231608;23;20398;-92
2022/09/18 13:07:25;;;;;;;3.67;2.10;;;;;;;;;;6225381;23;20396;-91
2022/09/18 13:10:14;;;;;;;3.60;2.40;;;;;;;;;;6229172;23;20390;-92
2022/09/18 13:12:43;;;;;;;4.27;2.63;;;;;;;;;;6226598;22;20453;-89
2022/09/18 13:15:18;;;;;;;4.27;2.97;;;;;;;;;;6232008;23;20422;-91
2022/09/18 13:17:53;;;;;;;3.40;2.73;;;;;;;;;;6230166;23;20410;-92
2022/09/18 13:20:25;;;;;;;2.83;1.60;;;;;;;;;;6227910;23;20438;-91
2022/09/18 13:22:55;;;;;;;2.90;2.30;;;;;;;;;;6227309;23;20426;-92
2022/09/18 13:25:28;;;;;;;2.87;2.77;;;;;;;;;;6224008;23;20390;-90
2022/09/18 13:27:54;;;;;;;3.50;1.77;;;;;;;;;;6229549;23;20446;-87
2022/09/18 13:30:25;;;;;;;1.63;1.63;;;;;;;;;;6225012;23;20401;-92
2022/09/18 13:32:53;;;;;;;2.20;2.10;;;;;;;;;;6224702;23;20390;-88
2022/09/18 13:35:26;;;;;;;4.70;1.83;;;;;;;;;;6226982;23;20392;-87
2022/09/18 13:38:13;;;;;;;1.10;1.10;;;;;;;;;;6228228;23;20375;-91
2022/09/18 13:40:47;;;;;;;4.70;1.50;;;;;;;;;;6224949;23;20449;-90
2022/09/18 13:43:19;;;;;;;3.70;2.03;;;;;;;;;;6224173;23;20381;-90
2022/09/18 13:45:45;;;;;;;2.70;2.50;;;;;;;;;;6227728;23;20390;-88
2022/09/18 13:48:11;;;;;;;1.67;1.40;;;;;;;;;;6228686;23;20398;-92
2022/09/18 13:50:47;;;;;;;1.93;1.40;;;;;;;;;;6226531;23;20378;-90
2022/09/18 13:53:28;;;;;;;1.37;0.73;;;;;;;;;;6228908;23;20381;-90
2022/09/18 13:55:54;;;;;;;3.70;1.97;;;;;;;;;;6221226;23;20358;-92
2022/09/18 13:58:32;;;;;;;1.60;1.50;;;;;;;;;;6219467;23;20443;-91
2022/09/18 14:01:00;;;;;;;1.47;1.37;;;;;;;;;;6214654;23;20410;-89
2022/09/18 14:03:29;;;;;;;4.90;1.60;;;;;;;;;;6227965;23;20391;-87
2022/09/18 14:05:58;;;;;;;3.30;2.03;;;;;;;;;;6221018;23;20472;-90
2022/09/18 14:08:27;;;;;;;1.73;1.60;;;;;;;;;;6223495;23;20394;-90
2022/09/18 14:11:03;;;;;;;2.40;2.30;;;;;;;;;;6232034;23;20390;-96
2022/09/18 14:13:31;;;;;;;3.40;2.80;;;;;;;;;;6236832;22;20417;-95
2022/09/18 14:16:06;;;;;;;1.90;1.80;;;;;;;;;;6232544;23;20956;-93
2022/09/18 14:18:47;;;;;;;3.00;2.20;;;;;;;;;;6235187;23;20867;-90
2022/09/18 14:21:38;;;;;;;2.17;1.93;;;;;;;;;;6234573;22;20439;-96
2022/09/18 14:24:24;;;;;;;1.73;1.60;;;;;;;;;;6228859;23;20458;-95
2022/09/18 14:26:53;;;;;;;1.53;1.00;;;;;;;;;;6235977;23;20401;-93
2022/09/18 14:29:19;;;;;;;1.67;0.93;;;;;;;;;;6234979;23;20826;-92
2022/09/18 14:31:49;;;;;;;3.00;1.30;;;;;;;;;;6234707;23;20397;-92
2022/09/18 14:34:18;;;;;;;1.23;1.23;;;;;;;;;;6234367;23;20432;-93
2022/09/18 14:36:45;;;;;;;2.43;1.10;;;;;;;;;;6238444;23;20413;-92
2022/09/18 14:39:54;;;;;;;1.17;1.07;;;;;;;;;;6240229;22;20444;-94
2022/09/18 14:42:28;;;;;;;1.20;1.20;;;;;;;;;;6233041;23;20389;-94
2022/09/18 14:45:14;;;;;;;2.67;1.43;;;;;;;;;;6237071;23;20436;-95
2022/09/18 14:47:45;;;;;;;4.03;1.10;;;;;;;;;;6224834;23;20421;-95
2022/09/18 14:50:31;;;;;;;1.60;1.40;;;;;;;;;;6230643;23;20416;-95
2022/09/18 14:53:17;;;;;;;1.17;1.17;;;;;;;;;;6239931;22;20382;-91
2022/09/18 14:55:52;;;;;;;1.40;1.30;;;;;;;;;;6267446;23;20338;-95
2022/09/18 14:58:20;;;;;;;1.50;1.40;;;;;;;;;;6239388;23;20644;-94
2022/09/18 15:00:52;;;;;;;1.13;0.80;;;;;;;;;;6229555;23;20441;-93
2022/09/18 15:03:25;;;;;;;0.90;0.90;;;;;;;;;;6242718;23;20413;-95
2022/09/18 15:05:52;;;;;;;1.30;1.30;;;;;;;;;;6239363;23;20411;-93
2022/09/18 15:08:30;;;;;;;;;;;;;;;;;;;;;
2022/09/18 15:11:00;;;;;;;1.33;1.17;;;;;;;;;;6271890;22;20429;-93
2022/09/18 15:13:28;;;;;;;1.40;1.40;;;;;;;;;;6242377;23;20429;-94
2022/09/18 15:16:05;;;;;;;3.20;1.00;;;;;;;;;;6211724;23;20406;-94
2022/09/18 15:18:41;;;;;;;1.17;0.93;;;;;;;;;;6214782;23;20369;-92
2022/09/18 15:21:26;;;;;;;2.93;2.03;;;;;;;;;;6210725;23;20501;-93
2022/09/18 15:23:56;;;;;;;1.10;1.10;;;;;;;;;;6236635;23;20414;-95
2022/09/18 15:26:35;;;;;;;;;;;;;;;;;;;;;
2022/09/18 15:29:05;;;;;;;2.97;1.20;;;;;;;;;;6236240;22;21268;-92
2022/09/18 15:31:38;;;;;;;1.90;1.10;;;;;;;;;;6250558;22;20444;-88
2022/09/18 15:34:18;;;;;;;2.20;1.52;;;;;;;;;;6240893;23;20393;-92
2022/09/18 15:36:48;;;;;;;2.93;1.27;;;;;;;;;;6238674;23;20139;-93
2022/09/18 15:39:45;;;;;;;1.40;1.30;;;;;;;;;;6236518;23;20451;-93
2022/09/18 15:42:46;;;;;;;2.77;1.37;;;;;;;;;;6137855;23;20482;-94
2022/09/18 15:45:18;;;;;;;1.50;1.40;;;;;;;;;;6224647;23;20400;-95
2022/09/18 15:47:50;;;;;;;2.22;1.60;;;;;;;;;;6239168;23;20397;-96
2022/09/18 15:50:17;;;;;;;1.10;1.10;;;;;;;;;;6236780;23;20143;-92
2022/09/18 15:53:02;;;;;;;3.90;1.40;;;;;;;;;;6237252;23;20394;-93
2022/09/18 15:55:47;;;;;;;3.87;1.37;;;;;;;;;;6238072;23;20377;-93
2022/09/18 15:58:27;;;;;;;1.60;1.50;;;;;;;;;;6236857;23;20386;-91
2022/09/18 16:01:04;;;;;;;3.67;1.93;;;;;;;;;;6230214;23;20437;-92
2022/09/18 16:03:37;;;;;;;1.60;1.33;;;;;;;;;;6243553;23;20397;-90
2022/09/18 16:08:54;;;;;;;1.53;1.33;;;;;;;;;;6267670;23;20190;-92
2022/09/18 16:11:38;;;;;;;1.90;1.67;;;;;;;;;;6237431;23;20411;-93
2022/09/18 16:14:30;;;;;;;3.20;1.40;;;;;;;;;;6260363;22;20408;-92
2022/09/18 16:16:59;;;;;;;1.27;1.27;;;;;;;;;;6242965;23;20465;-90
2022/09/18 16:19:25;;;;;;;1.67;1.67;;;;;;;;;;6242900;22;20439;-92
2022/09/18 16:21:53;;;;;;;1.90;1.80;;;;;;;;;;6244398;22;20471;-89
2022/09/18 16:24:29;;;;;;;1.53;1.43;;;;;;;;;;6224665;22;20447;-91
2022/09/18 16:27:05;;;;;;;2.33;1.37;;;;;;;;;;6177779;23;20411;-92
2022/09/18 16:29:34;;;;;;;1.70;1.70;;;;;;;;;;6165176;23;20453;-92
2022/09/18 16:32:00;;;;;;;2.30;1.60;;;;;;;;;;6199462;22;20555;-89
2022/09/18 16:34:27;;;;;;;2.90;1.67;;;;;;;;;;6212661;23;20410;-92
2022/09/18 16:36:54;;;;;;;4.13;1.97;;;;;;;;;;6209921;23;20533;-91
2022/09/18 16:39:21;;;;;;;3.70;1.60;;;;;;;;;;6210279;23;20469;-92
2022/09/18 16:41:47;;;;;;;1.43;1.33;;;;;;;;;;6190904;23;20457;-93
2022/09/18 16:44:14;;;;;;;2.93;1.73;;;;;;;;;;6189842;23;20437;-91
2022/09/18 16:46:54;;;;;;;1.50;1.30;;;;;;;;;;6191080;23;20572;-93
2022/09/18 16:49:22;;;;;;;1.37;1.27;;;;;;;;;;6196901;23;20454;-92
2022/09/18 16:51:48;;;;;;;1.17;1.17;;;;;;;;;;6191083;23;20407;-92
2022/09/18 16:54:14;;;;;;;1.07;0.93;;;;;;;;;;6194548;23;20398;-92
2022/09/18 16:56:43;;;;;;;1.30;1.30;;;;;;;;;;6193292;23;20444;-91
2022/09/18 16:59:09;;;;;;;1.83;1.33;;;;;;;;;;6196948;23;20433;-90
2022/09/18 17:01:37;;;;;;;1.27;1.17;;;;;;;;;;6200942;23;20398;-94
2022/09/18 17:04:04;;;;;;;1.30;1.30;;;;;;;;;;6197222;23;20402;-94
2022/09/18 17:06:36;;;;;;;1.13;1.13;;;;;;;;;;6221860;23;20230;-92
2022/09/18 17:09:17;;;;;;;2.23;1.57;;;;;;;;;;6198757;23;20868;-92
2022/09/18 17:11:44;;;;;;;3.10;1.47;;;;;;;;;;6206958;23;20413;-92
2022/09/18 17:14:12;;;;;;;0.97;0.97;;;;;;;;;;6204530;23;20493;-94
2022/09/18 17:16:39;;;;;;;2.00;1.30;;;;;;;;;;6202396;23;20403;-93
2022/09/18 17:19:06;;;;;;;1.70;1.60;;;;;;;;;;6200723;23;20454;-94
2022/09/18 17:21:32;;;;;;;2.37;1.40;;;;;;;;;;6222493;23;20430;-93
2022/09/18 17:24:00;;;;;;;1.77;1.67;;;;;;;;;;6188006;23;20402;-93
2022/09/18 17:26:30;;;;;;;1.20;1.20;;;;;;;;;;6187687;23;20394;-93
2022/09/18 17:28:59;;;;;;;2.20;1.40;;;;;;;;;;6198349;23;20398;-90
2022/09/18 17:31:25;;;;;;;1.10;1.00;;;;;;;;;;6219426;23;20425;-92
2022/09/18 17:34:00;;;;;;;1.83;1.37;;;;;;;;;;6193307;23;20516;-91
2022/09/18 17:36:26;;;;;;;1.50;1.40;;;;;;;;;;6197679;23;20408;-91
2022/09/18 17:38:55;;;;;;;1.47;1.47;;;;;;;;;;6223856;23;20397;-92
2022/09/18 17:41:21;;;;;;;1.80;1.80;;;;;;;;;;6223121;23;20402;-91
2022/09/18 17:44:13;;;;;;;2.57;1.00;;;;;;;;;;6235377;23;20155;-91
2022/09/18 17:46:44;;;;;;;1.30;1.20;;;;;;;;;;6232807;23;20370;-92
2022/09/18 17:49:20;;;;;;;1.80;1.70;;;;;;;;;;6232794;23;20381;-92
2022/09/18 17:51:46;;;;;;;1.40;1.40;;;;;;;;;;6234992;23;20443;-92
2022/09/18 17:54:12;;;;;;;2.20;2.13;;;;;;;;;;6239103;23;20380;-92
2022/09/18 17:56:41;;;;;;;1.30;1.20;;;;;;;;;;6239637;23;20392;-91